sensor_id;sensor_type;location;lat;lon;timestamp;temperature;humidity
53653;DHT22;39553;52.954;5.932;2022-12-08T00:01:18;3.60;99.90
53653;DHT22;39553;52.954;5.932;2022-12-08T00:03:44;2.30;99.90
53653;DHT22;39553;52.954;5.932;2022-12-08T00:06:32;3.70;99.90
53653;DHT22;39553;52.954;5.932;2022-12-08T00:11:59;2.50;99.90
53653;DHT22;39553;52.954;5.932;2022-12-08T00:14:30;2.50;99.90
53653;DHT22;39553;52.954;5.932;2022-12-08T00:16:56;2.50;99.90
53653;DHT22;39553;52.954;5.932;2022-12-08T00:19:23;2.50;99.90
53653;DHT22;39553;52.954;5.932;2022-12-08T00:21:50;2.50;99.90
53653;DHT22;39553;52.954;5.932;2022-12-08T00:24:17;2.40;99.90
53653;DHT22;39553;52.954;5.932;2022-12-08T00:26:43;2.40;99.90
53653;DHT22;39553;52.954;5.932;2022-12-08T00:29:09;2.40;99.90
53653;DHT22;39553;52.954;5.932;2022-12-08T00:31:35;2.40;99.90
53653;DHT22;39553;52.954;5.932;2022-12-08T00:34:01;2.70;99.90
53653;DHT22;39553;52.954;5.932;2022-12-08T00:36:27;2.40;99.90
53653;DHT22;39553;52.954;5.932;2022-12-08T00:38:53;2.40;99.90
53653;DHT22;39553;52.954;5.932;2022-12-08T00:41:21;2.50;99.90
53653;DHT22;39553;52.954;5.932;2022-12-08T00:44:07;2.40;99.90
53653;DHT22;39553;52.954;5.932;2022-12-08T00:46:34;3.40;99.90
53653;DHT22;39553;52.954;5.932;2022-12-08T00:49:00;2.40;99.90
53653;DHT22;39553;52.954;5.932;2022-12-08T00:51:26;2.60;99.90
53653;DHT22;39553;52.954;5.932;2022-12-08T00:53:51;2.60;99.90
53653;DHT22;39553;52.954;5.932;2022-12-08T00:56:17;2.70;99.90
53653;DHT22;39553;52.954;5.932;2022-12-08T00:58:43;4.40;99.90
53653;DHT22;39553;52.954;5.932;2022-12-08T01:01:12;2.60;99.90
53653;DHT22;39553;52.954;5.932;2022-12-08T01:03:39;2.70;99.90
53653;DHT22;39553;52.954;5.932;2022-12-08T01:06:06;2.70;99.90
53653;DHT22;39553;52.954;5.932;2022-12-08T01:08:35;2.80;99.90
53653;DHT22;39553;52.954;5.932;2022-12-08T01:11:19;4.50;99.90
53653;DHT22;39553;52.954;5.932;2022-12-08T01:13:45;2.90;99.90
53653;DHT22;39553;52.954;5.932;2022-12-08T01:16:29;2.80;99.90
53653;DHT22;39553;52.954;5.932;2022-12-08T01:18:56;2.90;99.90
53653;DHT22;39553;52.954;5.932;2022-12-08T01:21:22;2.90;99.90
53653;DHT22;39553;52.954;5.932;2022-12-08T01:23:48;2.90;99.90
53653;DHT22;39553;52.954;5.932;2022-12-08T01:26:16;3.20;99.90
53653;DHT22;39553;52.954;5.932;2022-12-08T01:28:43;2.90;99.90
53653;DHT22;39553;52.954;5.932;2022-12-08T01:31:17;4.20;99.90
53653;DHT22;39553;52.954;5.932;2022-12-08T01:33:44;3.00;99.90
53653;DHT22;39553;52.954;5.932;2022-12-08T01:36:30;3.80;99.90
53653;DHT22;39553;52.954;5.932;2022-12-08T01:38:58;2.90;99.90
53653;DHT22;39553;52.954;5.932;2022-12-08T01:41:28;2.80;99.90
53653;DHT22;39553;52.954;5.932;2022-12-08T01:46:33;2.70;99.90
53653;DHT22;39553;52.954;5.932;2022-12-08T01:49:09;2.60;99.90
53653;DHT22;39553;52.954;5.932;2022-12-08T01:51:51;2.60;99.90
53653;DHT22;39553;52.954;5.932;2022-12-08T01:54:22;2.60;99.90
53653;DHT22;39553;52.954;5.932;2022-12-08T01:56:51;2.60;99.90
53653;DHT22;39553;52.954;5.932;2022-12-08T01:59:21;2.50;99.90
53653;DHT22;39553;52.954;5.932;2022-12-08T02:01:48;2.50;99.90
53653;DHT22;39553;52.954;5.932;2022-12-08T02:04:14;4.00;99.90
53653;DHT22;39553;52.954;5.932;2022-12-08T02:06:42;2.40;99.90
53653;DHT22;39553;52.954;5.932;2022-12-08T02:09:10;2.40;99.90
53653;DHT22;39553;52.954;5.932;2022-12-08T02:11:36;3.40;99.90
53653;DHT22;39553;52.954;5.932;2022-12-08T02:14:03;2.40;99.90
53653;DHT22;39553;52.954;5.932;2022-12-08T02:17:02;2.40;99.90
53653;DHT22;39553;52.954;5.932;2022-12-08T02:37:03;2.50;99.90
53653;DHT22;39553;52.954;5.932;2022-12-08T02:42:20;2.40;99.90
53653;DHT22;39553;52.954;5.932;2022-12-08T02:47:39;2.30;99.90
53653;DHT22;39553;52.954;5.932;2022-12-08T02:50:06;2.60;99.90
53653;DHT22;39553;52.954;5.932;2022-12-08T02:52:39;2.30;99.90
53653;DHT22;39553;52.954;5.932;2022-12-08T02:55:10;2.30;99.90
53653;DHT22;39553;52.954;5.932;2022-12-08T03:00:59;2.40;99.90
53653;DHT22;39553;52.954;5.932;2022-12-08T03:08:45;2.30;99.90
53653;DHT22;39553;52.954;5.932;2022-12-08T03:11:37;3.80;99.90
53653;DHT22;39553;52.954;5.932;2022-12-08T03:14:01;2.40;99.90
53653;DHT22;39553;52.954;5.932;2022-12-08T03:16:29;2.40;99.90
53653;DHT22;39553;52.954;5.932;2022-12-08T03:19:08;2.40;99.90
53653;DHT22;39553;52.954;5.932;2022-12-08T03:21:35;4.00;99.90
53653;DHT22;39553;52.954;5.932;2022-12-08T03:24:04;2.40;99.90
53653;DHT22;39553;52.954;5.932;2022-12-08T03:26:57;2.50;99.90
53653;DHT22;39553;52.954;5.932;2022-12-08T03:29:24;2.50;99.90
53653;DHT22;39553;52.954;5.932;2022-12-08T03:31:56;4.00;99.90
53653;DHT22;39553;52.954;5.932;2022-12-08T03:34:25;2.50;99.90
53653;DHT22;39553;52.954;5.932;2022-12-08T03:36:52;3.60;99.90
53653;DHT22;39553;52.954;5.932;2022-12-08T03:39:18;2.50;99.90
53653;DHT22;39553;52.954;5.932;2022-12-08T03:41:44;2.40;99.90
53653;DHT22;39553;52.954;5.932;2022-12-08T03:44:11;2.40;99.90
53653;DHT22;39553;52.954;5.932;2022-12-08T03:46:37;2.40;99.90
53653;DHT22;39553;52.954;5.932;2022-12-08T03:49:03;3.00;99.90
53653;DHT22;39553;52.954;5.932;2022-12-08T03:51:28;2.30;99.90
53653;DHT22;39553;52.954;5.932;2022-12-08T03:53:54;2.30;99.90
53653;DHT22;39553;52.954;5.932;2022-12-08T03:56:26;2.20;99.90
53653;DHT22;39553;52.954;5.932;2022-12-08T03:58:53;2.90;99.90
53653;DHT22;39553;52.954;5.932;2022-12-08T04:01:19;3.40;99.90
53653;DHT22;39553;52.954;5.932;2022-12-08T04:03:45;2.20;99.90
53653;DHT22;39553;52.954;5.932;2022-12-08T04:06:11;4.10;99.90
53653;DHT22;39553;52.954;5.932;2022-12-08T04:08:37;2.30;99.90
53653;DHT22;39553;52.954;5.932;2022-12-08T04:11:04;3.60;99.90
53653;DHT22;39553;52.954;5.932;2022-12-08T04:13:32;2.20;99.90
53653;DHT22;39553;52.954;5.932;2022-12-08T04:15:58;3.60;99.90
53653;DHT22;39553;52.954;5.932;2022-12-08T04:18:24;4.00;99.90
53653;DHT22;39553;52.954;5.932;2022-12-08T04:20:49;2.30;99.90
53653;DHT22;39553;52.954;5.932;2022-12-08T04:23:15;3.80;99.90
53653;DHT22;39553;52.954;5.932;2022-12-08T04:25:41;2.30;99.90
53653;DHT22;39553;52.954;5.932;2022-12-08T04:28:07;3.70;99.90
53653;DHT22;39553;52.954;5.932;2022-12-08T04:30:32;4.00;99.90
53653;DHT22;39553;52.954;5.932;2022-12-08T04:32:58;2.20;99.90
53653;DHT22;39553;52.954;5.932;2022-12-08T04:35:24;2.20;99.90
53653;DHT22;39553;52.954;5.932;2022-12-08T04:37:50;2.20;99.90
53653;DHT22;39553;52.954;5.932;2022-12-08T04:40:17;3.90;99.90
53653;DHT22;39553;52.954;5.932;2022-12-08T04:42:43;2.20;99.90
53653;DHT22;39553;52.954;5.932;2022-12-08T04:45:09;3.80;99.90
53653;DHT22;39553;52.954;5.932;2022-12-08T04:47:35;2.20;99.90
53653;DHT22;39553;52.954;5.932;2022-12-08T04:50:03;3.20;99.90
53653;DHT22;39553;52.954;5.932;2022-12-08T04:52:29;2.10;99.90
53653;DHT22;39553;52.954;5.932;2022-12-08T04:54:54;2.10;99.90
53653;DHT22;39553;52.954;5.932;2022-12-08T04:57:20;3.70;99.90
53653;DHT22;39553;52.954;5.932;2022-12-08T04:59:46;2.10;99.90
53653;DHT22;39553;52.954;5.932;2022-12-08T05:02:12;2.10;99.90
53653;DHT22;39553;52.954;5.932;2022-12-08T05:04:38;2.60;99.90
53653;DHT22;39553;52.954;5.932;2022-12-08T05:07:03;3.50;99.90
53653;DHT22;39553;52.954;5.932;2022-12-08T05:09:32;3.10;99.90
53653;DHT22;39553;52.954;5.932;2022-12-08T05:11:58;3.50;99.90
53653;DHT22;39553;52.954;5.932;2022-12-08T05:14:24;2.00;99.90
53653;DHT22;39553;52.954;5.932;2022-12-08T05:16:50;2.10;99.90
53653;DHT22;39553;52.954;5.932;2022-12-08T05:19:16;4.00;99.90
53653;DHT22;39553;52.954;5.932;2022-12-08T05:21:43;3.30;99.90
53653;DHT22;39553;52.954;5.932;2022-12-08T05:24:09;2.20;99.90
53653;DHT22;39553;52.954;5.932;2022-12-08T05:26:34;2.20;99.90
53653;DHT22;39553;52.954;5.932;2022-12-08T05:29:00;2.20;99.90
53653;DHT22;39553;52.954;5.932;2022-12-08T05:31:26;2.20;99.90
53653;DHT22;39553;52.954;5.932;2022-12-08T05:33:52;2.20;99.90
53653;DHT22;39553;52.954;5.932;2022-12-08T05:36:18;2.30;99.90
53653;DHT22;39553;52.954;5.932;2022-12-08T05:38:45;2.30;99.90
53653;DHT22;39553;52.954;5.932;2022-12-08T05:41:20;3.70;99.90
53653;DHT22;39553;52.954;5.932;2022-12-08T05:43:46;3.40;99.90
53653;DHT22;39553;52.954;5.932;2022-12-08T05:46:13;2.30;99.90
53653;DHT22;39553;52.954;5.932;2022-12-08T05:48:39;2.40;99.90
53653;DHT22;39553;52.954;5.932;2022-12-08T05:51:09;3.80;99.90
53653;DHT22;39553;52.954;5.932;2022-12-08T05:53:38;2.40;99.90
53653;DHT22;39553;52.954;5.932;2022-12-08T05:56:04;2.40;99.90
53653;DHT22;39553;52.954;5.932;2022-12-08T05:58:29;2.50;99.90
53653;DHT22;39553;52.954;5.932;2022-12-08T06:00:55;2.40;99.90
53653;DHT22;39553;52.954;5.932;2022-12-08T06:03:21;2.50;99.90
53653;DHT22;39553;52.954;5.932;2022-12-08T06:05:47;2.50;99.90
53653;DHT22;39553;52.954;5.932;2022-12-08T06:08:13;2.50;99.90
53653;DHT22;39553;52.954;5.932;2022-12-08T06:10:41;2.30;99.90
53653;DHT22;39553;52.954;5.932;2022-12-08T06:13:07;2.50;99.90
53653;DHT22;39553;52.954;5.932;2022-12-08T06:15:37;2.50;99.90
53653;DHT22;39553;52.954;5.932;2022-12-08T06:18:03;2.50;99.90
53653;DHT22;39553;52.954;5.932;2022-12-08T06:20:29;2.50;99.90
53653;DHT22;39553;52.954;5.932;2022-12-08T06:22:55;4.00;99.90
53653;DHT22;39553;52.954;5.932;2022-12-08T06:25:21;2.50;99.90
53653;DHT22;39553;52.954;5.932;2022-12-08T06:27:47;2.50;99.90
53653;DHT22;39553;52.954;5.932;2022-12-08T06:30:14;3.70;99.90
53653;DHT22;39553;52.954;5.932;2022-12-08T06:32:40;2.60;99.90
53653;DHT22;39553;52.954;5.932;2022-12-08T06:35:06;4.50;99.90
53653;DHT22;39553;52.954;5.932;2022-12-08T06:37:32;2.50;99.90
53653;DHT22;39553;52.954;5.932;2022-12-08T06:39:58;2.40;99.90
53653;DHT22;39553;52.954;5.932;2022-12-08T06:42:30;2.40;99.90
53653;DHT22;39553;52.954;5.932;2022-12-08T06:45:13;2.40;99.90
53653;DHT22;39553;52.954;5.932;2022-12-08T06:47:39;2.40;99.90
53653;DHT22;39553;52.954;5.932;2022-12-08T06:50:05;3.10;99.90
53653;DHT22;39553;52.954;5.932;2022-12-08T06:52:31;2.20;99.90
53653;DHT22;39553;52.954;5.932;2022-12-08T06:54:57;2.20;99.90
53653;DHT22;39553;52.954;5.932;2022-12-08T06:57:23;3.60;99.90
53653;DHT22;39553;52.954;5.932;2022-12-08T06:59:49;3.80;99.90
53653;DHT22;39553;52.954;5.932;2022-12-08T07:02:16;3.90;99.90
53653;DHT22;39553;52.954;5.932;2022-12-08T07:04:42;2.10;99.90
53653;DHT22;39553;52.954;5.932;2022-12-08T07:07:08;2.20;99.90
53653;DHT22;39553;52.954;5.932;2022-12-08T07:09:34;2.20;99.90
53653;DHT22;39553;52.954;5.932;2022-12-08T07:12:02;2.10;99.90
53653;DHT22;39553;52.954;5.932;2022-12-08T07:14:28;2.10;99.90
53653;DHT22;39553;52.954;5.932;2022-12-08T07:16:54;2.60;99.90
53653;DHT22;39553;52.954;5.932;2022-12-08T07:19:20;3.60;99.90
53653;DHT22;39553;52.954;5.932;2022-12-08T07:21:46;3.90;99.90
53653;DHT22;39553;52.954;5.932;2022-12-08T07:24:12;3.80;99.90
53653;DHT22;39553;52.954;5.932;2022-12-08T07:26:38;1.40;99.90
53653;DHT22;39553;52.954;5.932;2022-12-08T07:29:04;3.70;99.90
53653;DHT22;39553;52.954;5.932;2022-12-08T07:31:31;2.00;99.90
53653;DHT22;39553;52.954;5.932;2022-12-08T07:33:56;2.00;99.90
53653;DHT22;39553;52.954;5.932;2022-12-08T07:36:23;3.70;99.90
53653;DHT22;39553;52.954;5.932;2022-12-08T07:38:49;1.70;99.90
53653;DHT22;39553;52.954;5.932;2022-12-08T07:41:20;3.40;99.90
53653;DHT22;39553;52.954;5.932;2022-12-08T07:43:46;1.50;99.90
53653;DHT22;39553;52.954;5.932;2022-12-08T07:46:14;1.60;99.90
53653;DHT22;39553;52.954;5.932;2022-12-08T07:48:41;1.60;99.90
53653;DHT22;39553;52.954;5.932;2022-12-08T07:51:08;3.20;99.90
53653;DHT22;39553;52.954;5.932;2022-12-08T07:53:37;1.50;99.90
53653;DHT22;39553;52.954;5.932;2022-12-08T07:56:07;1.50;99.90
53653;DHT22;39553;52.954;5.932;2022-12-08T07:58:33;1.40;99.90
53653;DHT22;39553;52.954;5.932;2022-12-08T08:00:59;0.60;99.90
53653;DHT22;39553;52.954;5.932;2022-12-08T08:03:25;2.90;99.90
53653;DHT22;39553;52.954;5.932;2022-12-08T08:05:51;1.60;99.90
53653;DHT22;39553;52.954;5.932;2022-12-08T08:08:17;2.60;99.90
53653;DHT22;39553;52.954;5.932;2022-12-08T08:10:43;2.90;99.90
53653;DHT22;39553;52.954;5.932;2022-12-08T08:13:09;1.30;99.90
53653;DHT22;39553;52.954;5.932;2022-12-08T08:15:35;1.60;99.90
53653;DHT22;39553;52.954;5.932;2022-12-08T08:18:01;1.90;99.90
53653;DHT22;39553;52.954;5.932;2022-12-08T08:20:27;1.40;99.90
53653;DHT22;39553;52.954;5.932;2022-12-08T08:22:52;1.40;99.90
53653;DHT22;39553;52.954;5.932;2022-12-08T08:25:19;1.40;99.90
53653;DHT22;39553;52.954;5.932;2022-12-08T08:27:47;1.50;99.90
53653;DHT22;39553;52.954;5.932;2022-12-08T08:30:14;2.40;99.90
53653;DHT22;39553;52.954;5.932;2022-12-08T08:32:40;1.50;99.90
53653;DHT22;39553;52.954;5.932;2022-12-08T08:35:06;2.10;99.90
53653;DHT22;39553;52.954;5.932;2022-12-08T08:37:32;1.50;99.90
53653;DHT22;39553;52.954;5.932;2022-12-08T08:39:58;3.30;99.90
53653;DHT22;39553;52.954;5.932;2022-12-08T08:42:24;3.30;99.90
53653;DHT22;39553;52.954;5.932;2022-12-08T08:44:50;3.20;99.90
53653;DHT22;39553;52.954;5.932;2022-12-08T08:47:15;1.20;99.90
53653;DHT22;39553;52.954;5.932;2022-12-08T08:49:41;1.70;99.90
53653;DHT22;39553;52.954;5.932;2022-12-08T08:52:07;3.20;99.90
53653;DHT22;39553;52.954;5.932;2022-12-08T08:54:33;1.30;99.90
53653;DHT22;39553;52.954;5.932;2022-12-08T08:56:59;3.00;99.90
53653;DHT22;39553;52.954;5.932;2022-12-08T08:59:26;2.80;99.90
53653;DHT22;39553;52.954;5.932;2022-12-08T09:01:52;1.20;99.90
53653;DHT22;39553;52.954;5.932;2022-12-08T09:04:20;1.30;99.90
53653;DHT22;39553;52.954;5.932;2022-12-08T09:06:45;2.30;99.90
53653;DHT22;39553;52.954;5.932;2022-12-08T09:09:13;1.30;99.90
53653;DHT22;39553;52.954;5.932;2022-12-08T09:11:40;1.30;99.90
53653;DHT22;39553;52.954;5.932;2022-12-08T09:14:05;2.00;99.90
53653;DHT22;39553;52.954;5.932;2022-12-08T09:16:31;1.50;99.90
53653;DHT22;39553;52.954;5.932;2022-12-08T09:18:57;1.50;99.90
53653;DHT22;39553;52.954;5.932;2022-12-08T09:21:25;3.40;99.90
53653;DHT22;39553;52.954;5.932;2022-12-08T09:23:56;0.20;99.90
53653;DHT22;39553;52.954;5.932;2022-12-08T09:26:22;1.70;99.90
53653;DHT22;39553;52.954;5.932;2022-12-08T09:28:52;2.60;99.90
53653;DHT22;39553;52.954;5.932;2022-12-08T09:31:19;2.70;99.90
53653;DHT22;39553;52.954;5.932;2022-12-08T09:33:46;3.30;99.90
53653;DHT22;39553;52.954;5.932;2022-12-08T09:36:12;0.80;99.90
53653;DHT22;39553;52.954;5.932;2022-12-08T09:38:38;1.80;99.90
53653;DHT22;39553;52.954;5.932;2022-12-08T09:41:57;3.50;99.90
53653;DHT22;39553;52.954;5.932;2022-12-08T09:44:35;1.70;99.90
53653;DHT22;39553;52.954;5.932;2022-12-08T09:53:24;1.80;99.90
53653;DHT22;39553;52.954;5.932;2022-12-08T09:55:54;1.90;99.90
53653;DHT22;39553;52.954;5.932;2022-12-08T09:58:36;3.40;99.90
53653;DHT22;39553;52.954;5.932;2022-12-08T10:01:09;2.10;99.90
53653;DHT22;39553;52.954;5.932;2022-12-08T10:03:35;2.40;99.90
53653;DHT22;39553;52.954;5.932;2022-12-08T10:09:11;2.40;99.90
53653;DHT22;39553;52.954;5.932;2022-12-08T10:11:48;2.50;99.90
53653;DHT22;39553;52.954;5.932;2022-12-08T10:16:53;3.00;99.90
53653;DHT22;39553;52.954;5.932;2022-12-08T10:19:24;4.90;99.90
53653;DHT22;39553;52.954;5.932;2022-12-08T10:21:52;3.30;99.90
53653;DHT22;39553;52.954;5.932;2022-12-08T10:24:35;5.40;99.90
53653;DHT22;39553;52.954;5.932;2022-12-08T10:27:02;5.60;99.90
53653;DHT22;39553;52.954;5.932;2022-12-08T10:29:28;4.30;99.90
53653;DHT22;39553;52.954;5.932;2022-12-08T10:31:57;4.70;99.90
53653;DHT22;39553;52.954;5.932;2022-12-08T10:34:24;5.50;99.90
53653;DHT22;39553;52.954;5.932;2022-12-08T10:36:57;4.70;99.90
53653;DHT22;39553;52.954;5.932;2022-12-08T10:39:43;4.80;99.90
53653;DHT22;39553;52.954;5.932;2022-12-08T10:47:25;4.60;99.90
53653;DHT22;39553;52.954;5.932;2022-12-08T10:53:24;4.50;99.90
53653;DHT22;39553;52.954;5.932;2022-12-08T10:56:13;4.50;99.90
53653;DHT22;39553;52.954;5.932;2022-12-08T10:58:43;4.60;99.90
53653;DHT22;39553;52.954;5.932;2022-12-08T11:01:16;4.60;99.90
53653;DHT22;39553;52.954;5.932;2022-12-08T11:03:54;4.70;99.90
53653;DHT22;39553;52.954;5.932;2022-12-08T11:11:21;3.70;99.90
53653;DHT22;39553;52.954;5.932;2022-12-08T11:14:06;4.00;99.90
53653;DHT22;39553;52.954;5.932;2022-12-08T11:16:32;3.30;99.90
53653;DHT22;39553;52.954;5.932;2022-12-08T11:19:03;2.80;99.90
53653;DHT22;39553;52.954;5.932;2022-12-08T11:21:35;3.70;99.90
53653;DHT22;39553;52.954;5.932;2022-12-08T11:26:43;4.40;99.90
53653;DHT22;39553;52.954;5.932;2022-12-08T11:29:11;4.00;99.90
53653;DHT22;39553;52.954;5.932;2022-12-08T11:31:43;3.90;99.90
53653;DHT22;39553;52.954;5.932;2022-12-08T11:34:22;4.30;99.90
53653;DHT22;39553;52.954;5.932;2022-12-08T11:36:51;2.80;99.90
53653;DHT22;39553;52.954;5.932;2022-12-08T11:39:19;4.30;99.90
53653;DHT22;39553;52.954;5.932;2022-12-08T11:41:46;3.00;99.90
53653;DHT22;39553;52.954;5.932;2022-12-08T11:44:27;3.10;99.90
53653;DHT22;39553;52.954;5.932;2022-12-08T11:46:57;3.20;99.90
53653;DHT22;39553;52.954;5.932;2022-12-08T11:49:36;3.90;99.90
53653;DHT22;39553;52.954;5.932;2022-12-08T11:52:26;4.00;99.90
53653;DHT22;39553;52.954;5.932;2022-12-08T11:55:15;4.20;99.90
53653;DHT22;39553;52.954;5.932;2022-12-08T11:57:44;4.40;99.90
53653;DHT22;39553;52.954;5.932;2022-12-08T12:00:12;4.80;99.90
53653;DHT22;39553;52.954;5.932;2022-12-08T12:02:43;5.70;99.90
53653;DHT22;39553;52.954;5.932;2022-12-08T12:05:40;6.30;99.90
53653;DHT22;39553;52.954;5.932;2022-12-08T12:11:14;5.70;99.90
53653;DHT22;39553;52.954;5.932;2022-12-08T12:14:20;5.50;99.90
53653;DHT22;39553;52.954;5.932;2022-12-08T12:17:02;5.30;99.90
53653;DHT22;39553;52.954;5.932;2022-12-08T12:19:34;5.00;99.90
53653;DHT22;39553;52.954;5.932;2022-12-08T12:22:15;4.90;99.90
53653;DHT22;39553;52.954;5.932;2022-12-08T12:24:48;4.90;99.90
53653;DHT22;39553;52.954;5.932;2022-12-08T12:27:20;4.80;99.90
53653;DHT22;39553;52.954;5.932;2022-12-08T12:29:51;4.70;99.90
53653;DHT22;39553;52.954;5.932;2022-12-08T12:32:18;3.60;99.90
53653;DHT22;39553;52.954;5.932;2022-12-08T12:34:56;4.60;99.90
53653;DHT22;39553;52.954;5.932;2022-12-08T12:37:41;4.50;99.90
53653;DHT22;39553;52.954;5.932;2022-12-08T12:40:19;4.60;99.90
53653;DHT22;39553;52.954;5.932;2022-12-08T12:43:34;4.70;99.90
53653;DHT22;39553;52.954;5.932;2022-12-08T12:45:36;4.60;99.90
53653;DHT22;39553;52.954;5.932;2022-12-08T12:56:00;5.10;99.90
53653;DHT22;39553;52.954;5.932;2022-12-08T13:03:50;4.30;99.90
53653;DHT22;39553;52.954;5.932;2022-12-08T13:06:42;4.30;99.90
53653;DHT22;39553;52.954;5.932;2022-12-08T13:09:21;4.50;99.90
53653;DHT22;39553;52.954;5.932;2022-12-08T13:11:53;4.50;99.90
53653;DHT22;39553;52.954;5.932;2022-12-08T13:14:47;4.50;99.90
53653;DHT22;39553;52.954;5.932;2022-12-08T13:17:26;4.50;99.90
53653;DHT22;39553;52.954;5.932;2022-12-08T13:19:58;4.70;99.90
53653;DHT22;39553;52.954;5.932;2022-12-08T13:25:45;6.40;99.90
53653;DHT22;39553;52.954;5.932;2022-12-08T13:30:53;6.40;99.90
53653;DHT22;39553;52.954;5.932;2022-12-08T13:33:32;5.80;99.90
53653;DHT22;39553;52.954;5.932;2022-12-08T13:36:26;5.40;99.90
53653;DHT22;39553;52.954;5.932;2022-12-08T13:38:57;5.00;99.90
53653;DHT22;39553;52.954;5.932;2022-12-08T13:42:01;4.80;99.90
53653;DHT22;39553;52.954;5.932;2022-12-08T13:44:50;6.20;99.90
53653;DHT22;39553;52.954;5.932;2022-12-08T13:47:29;4.50;99.90
53653;DHT22;39553;52.954;5.932;2022-12-08T13:55:41;4.10;99.90
53653;DHT22;39553;52.954;5.932;2022-12-08T13:58:34;4.10;99.90
53653;DHT22;39553;52.954;5.932;2022-12-08T14:06:19;4.60;99.90
53653;DHT22;39553;52.954;5.932;2022-12-08T14:08:51;3.80;99.90
53653;DHT22;39553;52.954;5.932;2022-12-08T14:11:25;3.80;99.90
53653;DHT22;39553;52.954;5.932;2022-12-08T14:14:03;3.80;99.90
53653;DHT22;39553;52.954;5.932;2022-12-08T14:16:42;3.70;99.90
53653;DHT22;39553;52.954;5.932;2022-12-08T14:19:23;3.70;99.90
53653;DHT22;39553;52.954;5.932;2022-12-08T14:22:01;3.60;99.90
53653;DHT22;39553;52.954;5.932;2022-12-08T14:24:30;3.50;99.90
53653;DHT22;39553;52.954;5.932;2022-12-08T14:27:01;4.40;99.90
53653;DHT22;39553;52.954;5.932;2022-12-08T14:29:40;3.80;99.90
53653;DHT22;39553;52.954;5.932;2022-12-08T14:32:30;3.50;99.90
53653;DHT22;39553;52.954;5.932;2022-12-08T14:37:33;3.30;99.90
53653;DHT22;39553;52.954;5.932;2022-12-08T14:40:43;3.40;99.90
53653;DHT22;39553;52.954;5.932;2022-12-08T14:45:18;3.40;99.90
53653;DHT22;39553;52.954;5.932;2022-12-08T14:47:44;3.10;99.90
53653;DHT22;39553;52.954;5.932;2022-12-08T14:50:52;3.00;99.90
53653;DHT22;39553;52.954;5.932;2022-12-08T14:53:20;3.00;99.90
53653;DHT22;39553;52.954;5.932;2022-12-08T14:55:47;4.40;99.90
53653;DHT22;39553;52.954;5.932;2022-12-08T14:58:29;2.80;99.90
53653;DHT22;39553;52.954;5.932;2022-12-08T15:00:56;2.70;99.90
53653;DHT22;39553;52.954;5.932;2022-12-08T15:03:25;3.80;99.90
53653;DHT22;39553;52.954;5.932;2022-12-08T15:05:55;2.60;99.90
53653;DHT22;39553;52.954;5.932;2022-12-08T15:08:22;4.20;99.90
53653;DHT22;39553;52.954;5.932;2022-12-08T15:13:48;2.70;99.90
53653;DHT22;39553;52.954;5.932;2022-12-08T15:19:03;2.60;99.90
53653;DHT22;39553;52.954;5.932;2022-12-08T15:21:31;2.70;99.90
53653;DHT22;39553;52.954;5.932;2022-12-08T15:23:59;2.70;99.90
53653;DHT22;39553;52.954;5.932;2022-12-08T15:26:26;2.60;99.90
53653;DHT22;39553;52.954;5.932;2022-12-08T15:28:53;2.60;99.90
53653;DHT22;39553;52.954;5.932;2022-12-08T15:31:20;2.60;99.90
53653;DHT22;39553;52.954;5.932;2022-12-08T15:33:46;2.50;99.90
53653;DHT22;39553;52.954;5.932;2022-12-08T15:36:12;2.50;99.90
53653;DHT22;39553;52.954;5.932;2022-12-08T15:38:38;2.40;99.90
53653;DHT22;39553;52.954;5.932;2022-12-08T15:41:04;2.30;99.90
53653;DHT22;39553;52.954;5.932;2022-12-08T15:43:33;2.40;99.90
53653;DHT22;39553;52.954;5.932;2022-12-08T15:45:58;2.30;99.90
53653;DHT22;39553;52.954;5.932;2022-12-08T15:48:27;2.30;99.90
53653;DHT22;39553;52.954;5.932;2022-12-08T15:50:54;2.30;99.90
53653;DHT22;39553;52.954;5.932;2022-12-08T15:53:20;2.20;99.90
53653;DHT22;39553;52.954;5.932;2022-12-08T15:55:46;3.40;99.90
53653;DHT22;39553;52.954;5.932;2022-12-08T15:58:23;2.20;99.90
53653;DHT22;39553;52.954;5.932;2022-12-08T16:00:50;2.10;99.90
53653;DHT22;39553;52.954;5.932;2022-12-08T16:03:30;2.20;99.90
53653;DHT22;39553;52.954;5.932;2022-12-08T16:05:57;3.70;99.90
53653;DHT22;39553;52.954;5.932;2022-12-08T16:08:27;2.00;99.90
53653;DHT22;39553;52.954;5.932;2022-12-08T16:10:54;1.90;99.90
53653;DHT22;39553;52.954;5.932;2022-12-08T16:13:40;3.10;99.90
53653;DHT22;39553;52.954;5.932;2022-12-08T16:16:15;1.90;99.90
53653;DHT22;39553;52.954;5.932;2022-12-08T16:18:46;1.90;99.90
53653;DHT22;39553;52.954;5.932;2022-12-08T16:21:13;2.90;99.90
53653;DHT22;39553;52.954;5.932;2022-12-08T16:23:38;1.70;99.90
53653;DHT22;39553;52.954;5.932;2022-12-08T16:26:05;3.60;99.90
53653;DHT22;39553;52.954;5.932;2022-12-08T16:28:31;1.80;99.90
53653;DHT22;39553;52.954;5.932;2022-12-08T16:30:57;3.60;99.90
53653;DHT22;39553;52.954;5.932;2022-12-08T16:33:23;3.20;99.90
53653;DHT22;39553;52.954;5.932;2022-12-08T16:35:49;1.70;99.90
53653;DHT22;39553;52.954;5.932;2022-12-08T16:38:15;1.70;99.90
53653;DHT22;39553;52.954;5.932;2022-12-08T16:40:45;1.60;99.90
53653;DHT22;39553;52.954;5.932;2022-12-08T16:43:34;1.60;99.90
53653;DHT22;39553;52.954;5.932;2022-12-08T16:46:01;2.90;99.90
53653;DHT22;39553;52.954;5.932;2022-12-08T16:48:26;1.40;99.90
53653;DHT22;39553;52.954;5.932;2022-12-08T16:50:53;1.30;99.90
53653;DHT22;39553;52.954;5.932;2022-12-08T16:53:19;2.40;99.90
53653;DHT22;39553;52.954;5.932;2022-12-08T16:55:45;1.10;99.90
53653;DHT22;39553;52.954;5.932;2022-12-08T16:58:12;2.80;99.90
53653;DHT22;39553;52.954;5.932;2022-12-08T17:00:38;2.80;99.90
53653;DHT22;39553;52.954;5.932;2022-12-08T17:03:06;1.00;99.90
53653;DHT22;39553;52.954;5.932;2022-12-08T17:05:35;0.40;99.90
53653;DHT22;39553;52.954;5.932;2022-12-08T17:08:03;2.40;99.90
53653;DHT22;39553;52.954;5.932;2022-12-08T17:10:30;0.80;99.90
53653;DHT22;39553;52.954;5.932;2022-12-08T17:13:00;2.80;99.90
53653;DHT22;39553;52.954;5.932;2022-12-08T17:15:26;0.60;99.90
53653;DHT22;39553;52.954;5.932;2022-12-08T17:17:53;2.40;99.90
53653;DHT22;39553;52.954;5.932;2022-12-08T17:20:38;0.50;99.90
53653;DHT22;39553;52.954;5.932;2022-12-08T17:23:04;0.40;99.90
53653;DHT22;39553;52.954;5.932;2022-12-08T17:25:33;1.80;99.90
53653;DHT22;39553;52.954;5.932;2022-12-08T17:27:59;0.40;99.90
53653;DHT22;39553;52.954;5.932;2022-12-08T17:30:25;2.40;99.90
53653;DHT22;39553;52.954;5.932;2022-12-08T17:32:50;0.00;99.90
53653;DHT22;39553;52.954;5.932;2022-12-08T17:35:17;0.20;99.90
53653;DHT22;39553;52.954;5.932;2022-12-08T17:37:44;0.20;99.90
53653;DHT22;39553;52.954;5.932;2022-12-08T17:40:10;0.20;99.90
53653;DHT22;39553;52.954;5.932;2022-12-08T17:42:35;0.10;99.90
53653;DHT22;39553;52.954;5.932;2022-12-08T17:45:04;1.70;99.90
53653;DHT22;39553;52.954;5.932;2022-12-08T17:47:29;0.10;99.90
53653;DHT22;39553;52.954;5.932;2022-12-08T17:49:55;0.10;99.90
53653;DHT22;39553;52.954;5.932;2022-12-08T17:52:22;0.50;99.90